sensor_id;sensor_type;location;lat;lon;timestamp;pressure;altitude;pressure_sealevel;temperature;humidity
45323;BME280;31382;50.200;8.674;2022-12-18T00:01:31;101801.72;;;-5.56;69.29
45323;BME280;31382;50.200;8.674;2022-12-18T00:06:35;101793.22;;;-5.66;69.04
45323;BME280;31382;50.200;8.674;2022-12-18T00:11:36;101798.59;;;-5.72;68.65
45323;BME280;31382;50.200;8.674;2022-12-18T00:16:38;101803.94;;;-5.79;69.04
45323;BME280;31382;50.200;8.674;2022-12-18T00:21:41;101804.06;;;-5.83;68.98
45323;BME280;31382;50.200;8.674;2022-12-18T00:26:43;101803.25;;;-5.85;69.30
45323;BME280;31382;50.200;8.674;2022-12-18T00:31:45;101794.59;;;-5.89;69.29
45323;BME280;31382;50.200;8.674;2022-12-18T00:36:47;101794.66;;;-5.90;68.81
45323;BME280;31382;50.200;8.674;2022-12-18T00:41:49;101797.25;;;-5.90;68.97
45323;BME280;31382;50.200;8.674;2022-12-18T00:47:09;101797.38;;;-5.95;69.18
45323;BME280;31382;50.200;8.674;2022-12-18T00:52:10;101801.59;;;-5.89;69.08
45323;BME280;31382;50.200;8.674;2022-12-18T00:57:11;101804.06;;;-5.83;69.13
45323;BME280;31382;50.200;8.674;2022-12-18T01:02:13;101810.28;;;-5.89;68.84
45323;BME280;31382;50.200;8.674;2022-12-18T01:07:14;101817.59;;;-6.02;69.21
45323;BME280;31382;50.200;8.674;2022-12-18T01:12:16;101812.22;;;-5.95;69.43
45323;BME280;31382;50.200;8.674;2022-12-18T01:17:17;101814.63;;;-5.86;69.40
45323;BME280;31382;50.200;8.674;2022-12-18T01:22:18;101824.34;;;-5.93;69.15
45323;BME280;31382;50.200;8.674;2022-12-18T01:27:20;101821.69;;;-5.90;69.51
45323;BME280;31382;50.200;8.674;2022-12-18T01:32:22;101827.78;;;-5.91;69.44
45323;BME280;31382;50.200;8.674;2022-12-18T01:37:23;101831.53;;;-6.00;70.07
45323;BME280;31382;50.200;8.674;2022-12-18T01:42:25;101846.44;;;-6.05;69.56
45323;BME280;31382;50.200;8.674;2022-12-18T01:47:43;101844.69;;;-6.04;69.48
45323;BME280;31382;50.200;8.674;2022-12-18T01:52:49;101832.56;;;-6.08;69.28
45323;BME280;31382;50.200;8.674;2022-12-18T01:57:55;101821.28;;;-6.10;69.50
45323;BME280;31382;50.200;8.674;2022-12-18T02:02:57;101829.91;;;-6.07;69.45
45323;BME280;31382;50.200;8.674;2022-12-18T02:13:18;101809.56;;;-5.94;69.31
45323;BME280;31382;50.200;8.674;2022-12-18T02:18:30;101811.47;;;-6.01;69.24
45323;BME280;31382;50.200;8.674;2022-12-18T02:23:49;101821.13;;;-6.04;69.62
45323;BME280;31382;50.200;8.674;2022-12-18T02:28:58;101807.34;;;-6.12;69.62
45323;BME280;31382;50.200;8.674;2022-12-18T02:34:03;101795.91;;;-6.07;69.65
45323;BME280;31382;50.200;8.674;2022-12-18T02:39:09;101813.09;;;-5.95;69.40
45323;BME280;31382;50.200;8.674;2022-12-18T02:44:13;101810.50;;;-5.96;69.43
45323;BME280;31382;50.200;8.674;2022-12-18T03:00:23;101820.28;;;-6.05;69.36
45323;BME280;31382;50.200;8.674;2022-12-18T03:05:36;101802.03;;;-6.08;69.51
45323;BME280;31382;50.200;8.674;2022-12-18T03:10:44;101830.06;;;-6.13;69.02
45323;BME280;31382;50.200;8.674;2022-12-18T03:15:49;101813.56;;;-6.16;69.38
45323;BME280;31382;50.200;8.674;2022-12-18T03:20:53;101809.13;;;-6.13;69.10
45323;BME280;31382;50.200;8.674;2022-12-18T03:26:00;101805.66;;;-6.13;69.30
45323;BME280;31382;50.200;8.674;2022-12-18T03:31:09;101806.69;;;-6.22;69.01
45323;BME280;31382;50.200;8.674;2022-12-18T03:36:13;101810.25;;;-6.25;68.65
45323;BME280;31382;50.200;8.674;2022-12-18T03:41:20;101806.03;;;-6.32;68.82
45323;BME280;31382;50.200;8.674;2022-12-18T03:46:40;101797.56;;;-6.43;69.47
45323;BME280;31382;50.200;8.674;2022-12-18T03:51:50;101805.44;;;-6.45;69.17
45323;BME280;31382;50.200;8.674;2022-12-18T03:57:02;101809.72;;;-6.42;68.57
45323;BME280;31382;50.200;8.674;2022-12-18T04:02:06;101809.03;;;-6.50;69.19
45323;BME280;31382;50.200;8.674;2022-12-18T04:07:09;101823.19;;;-6.61;68.99
45323;BME280;31382;50.200;8.674;2022-12-18T04:12:11;101809.16;;;-6.56;68.59
45323;BME280;31382;50.200;8.674;2022-12-18T04:17:13;101805.72;;;-6.59;68.78
45323;BME280;31382;50.200;8.674;2022-12-18T04:22:15;101794.53;;;-6.65;69.13
45323;BME280;31382;50.200;8.674;2022-12-18T04:27:16;101801.63;;;-6.73;68.96
45323;BME280;31382;50.200;8.674;2022-12-18T04:32:18;101805.97;;;-6.72;68.97
45323;BME280;31382;50.200;8.674;2022-12-18T04:37:19;101811.16;;;-6.69;68.50
45323;BME280;31382;50.200;8.674;2022-12-18T04:42:20;101807.03;;;-6.81;68.81
45323;BME280;31382;50.200;8.674;2022-12-18T04:47:22;101800.84;;;-6.77;68.51
45323;BME280;31382;50.200;8.674;2022-12-18T04:52:23;101804.44;;;-6.84;68.42
45323;BME280;31382;50.200;8.674;2022-12-18T04:57:25;101798.31;;;-6.83;68.36
45323;BME280;31382;50.200;8.674;2022-12-18T05:02:27;101798.50;;;-6.92;68.52
45323;BME280;31382;50.200;8.674;2022-12-18T05:07:28;101795.91;;;-6.94;68.45
45323;BME280;31382;50.200;8.674;2022-12-18T05:12:31;101798.66;;;-7.00;68.79
45323;BME280;31382;50.200;8.674;2022-12-18T05:17:32;101809.97;;;-7.01;68.62
45323;BME280;31382;50.200;8.674;2022-12-18T05:22:34;101819.53;;;-6.99;68.28
45323;BME280;31382;50.200;8.674;2022-12-18T05:27:35;101818.75;;;-7.05;68.44
45323;BME280;31382;50.200;8.674;2022-12-18T05:32:37;101815.28;;;-7.06;68.51
45323;BME280;31382;50.200;8.674;2022-12-18T05:37:38;101817.09;;;-7.09;68.65
45323;BME280;31382;50.200;8.674;2022-12-18T05:42:43;101807.47;;;-7.06;68.27
45323;BME280;31382;50.200;8.674;2022-12-18T05:47:45;101806.66;;;-7.11;68.42
45323;BME280;31382;50.200;8.674;2022-12-18T05:52:46;101811.88;;;-7.09;68.06
45323;BME280;31382;50.200;8.674;2022-12-18T05:57:47;101813.63;;;-7.10;68.00
45323;BME280;31382;50.200;8.674;2022-12-18T06:02:49;101804.16;;;-7.15;68.06
45323;BME280;31382;50.200;8.674;2022-12-18T06:07:50;101811.16;;;-7.19;68.10
45323;BME280;31382;50.200;8.674;2022-12-18T06:12:52;101819.13;;;-7.27;68.18
45323;BME280;31382;50.200;8.674;2022-12-18T06:17:53;101836.81;;;-7.43;68.33
45323;BME280;31382;50.200;8.674;2022-12-18T06:22:55;101829.91;;;-7.47;68.34
45323;BME280;31382;50.200;8.674;2022-12-18T06:27:56;101834.28;;;-7.49;68.69
45323;BME280;31382;50.200;8.674;2022-12-18T06:32:58;101835.94;;;-7.42;68.50
45323;BME280;31382;50.200;8.674;2022-12-18T06:38:01;101832.50;;;-7.45;68.46
45323;BME280;31382;50.200;8.674;2022-12-18T06:43:02;101841.16;;;-7.43;68.05
45323;BME280;31382;50.200;8.674;2022-12-18T06:48:04;101847.06;;;-7.30;67.94
45323;BME280;31382;50.200;8.674;2022-12-18T06:53:05;101857.53;;;-7.30;67.91
45323;BME280;31382;50.200;8.674;2022-12-18T06:58:07;101859.19;;;-7.26;68.08
45323;BME280;31382;50.200;8.674;2022-12-18T07:03:11;101861.75;;;-7.23;67.87
45323;BME280;31382;50.200;8.674;2022-12-18T07:08:12;101856.47;;;-7.19;67.63
45323;BME280;31382;50.200;8.674;2022-12-18T07:13:17;101876.53;;;-7.22;67.92
45323;BME280;31382;50.200;8.674;2022-12-18T07:18:19;101871.22;;;-7.18;67.76
45323;BME280;31382;50.200;8.674;2022-12-18T07:23:20;101876.25;;;-7.05;67.68
45323;BME280;31382;50.200;8.674;2022-12-18T07:28:21;101864.78;;;-6.96;67.61
45323;BME280;31382;50.200;8.674;2022-12-18T07:33:24;101853.41;;;-6.92;67.31
45323;BME280;31382;50.200;8.674;2022-12-18T07:38:27;101861.25;;;-6.94;67.38
45323;BME280;31382;50.200;8.674;2022-12-18T07:43:28;101869.06;;;-6.91;67.47
45323;BME280;31382;50.200;8.674;2022-12-18T07:48:30;101867.44;;;-7.00;67.72
45323;BME280;31382;50.200;8.674;2022-12-18T07:53:33;101866.56;;;-6.99;67.59
45323;BME280;31382;50.200;8.674;2022-12-18T07:58:35;101864.78;;;-6.95;67.47
45323;BME280;31382;50.200;8.674;2022-12-18T08:03:38;101862.28;;;-7.03;67.76
45323;BME280;31382;50.200;8.674;2022-12-18T08:08:40;101869.13;;;-6.97;67.59
45323;BME280;31382;50.200;8.674;2022-12-18T08:13:43;101865.53;;;-6.88;67.61
45323;BME280;31382;50.200;8.674;2022-12-18T08:18:44;101859.22;;;-6.78;67.24
45323;BME280;31382;50.200;8.674;2022-12-18T08:23:47;101858.09;;;-6.63;67.01
45323;BME280;31382;50.200;8.674;2022-12-18T08:28:50;101867.56;;;-6.58;67.14
45323;BME280;31382;50.200;8.674;2022-12-18T08:33:52;101856.06;;;-6.47;67.45
45323;BME280;31382;50.200;8.674;2022-12-18T08:38:56;101852.22;;;-6.31;66.76
45323;BME280;31382;50.200;8.674;2022-12-18T08:43:58;101842.44;;;-6.21;66.96
45323;BME280;31382;50.200;8.674;2022-12-18T08:49:18;101850.97;;;-6.11;67.24
45323;BME280;31382;50.200;8.674;2022-12-18T08:54:19;101839.28;;;-5.96;67.32
45323;BME280;31382;50.200;8.674;2022-12-18T08:59:20;101831.19;;;-5.86;67.16
45323;BME280;31382;50.200;8.674;2022-12-18T09:04:22;101829.19;;;-5.74;67.48
45323;BME280;31382;50.200;8.674;2022-12-18T09:09:23;101838.59;;;-5.66;67.37
45323;BME280;31382;50.200;8.674;2022-12-18T09:14:25;101838.38;;;-5.56;67.17
45323;BME280;31382;50.200;8.674;2022-12-18T09:19:26;101840.81;;;-5.49;67.03
45323;BME280;31382;50.200;8.674;2022-12-18T09:24:28;101857.22;;;-5.41;66.84
45323;BME280;31382;50.200;8.674;2022-12-18T09:29:29;101851.16;;;-5.43;67.20
45323;BME280;31382;50.200;8.674;2022-12-18T09:34:31;101857.78;;;-5.28;67.42
45323;BME280;31382;50.200;8.674;2022-12-18T09:39:35;101856.75;;;-5.22;67.41
45323;BME280;31382;50.200;8.674;2022-12-18T09:44:43;101858.09;;;-5.06;67.19
45323;BME280;31382;50.200;8.674;2022-12-18T09:49:52;101839.97;;;-4.81;67.07
45323;BME280;31382;50.200;8.674;2022-12-18T09:55:05;101849.81;;;-4.56;66.83
45323;BME280;31382;50.200;8.674;2022-12-18T10:00:18;101845.72;;;-4.35;66.94
45323;BME280;31382;50.200;8.674;2022-12-18T10:05:37;101832.84;;;-4.13;67.54
45323;BME280;31382;50.200;8.674;2022-12-18T10:10:58;101852.31;;;-3.90;67.10
45323;BME280;31382;50.200;8.674;2022-12-18T10:16:12;101847.44;;;-3.73;67.19
45323;BME280;31382;50.200;8.674;2022-12-18T10:21:20;101839.19;;;-3.62;67.68
45323;BME280;31382;50.200;8.674;2022-12-18T10:26:25;101826.09;;;-3.35;67.42
45323;BME280;31382;50.200;8.674;2022-12-18T10:31:26;101817.06;;;-3.28;67.80
45323;BME280;31382;50.200;8.674;2022-12-18T10:36:28;101810.84;;;-2.99;67.99
45323;BME280;31382;50.200;8.674;2022-12-18T10:41:30;101806.63;;;-2.78;67.41
45323;BME280;31382;50.200;8.674;2022-12-18T10:46:33;101813.88;;;-2.61;67.38
45323;BME280;31382;50.200;8.674;2022-12-18T10:51:36;101821.06;;;-2.41;67.77
45323;BME280;31382;50.200;8.674;2022-12-18T10:56:39;101813.47;;;-2.25;67.77
45323;BME280;31382;50.200;8.674;2022-12-18T11:01:46;101810.25;;;-2.10;68.03
45323;BME280;31382;50.200;8.674;2022-12-18T11:06:57;101811.44;;;-1.95;68.02
45323;BME280;31382;50.200;8.674;2022-12-18T11:12:02;101816.53;;;-1.90;68.08
45323;BME280;31382;50.200;8.674;2022-12-18T11:17:04;101802.97;;;-1.80;68.13
45323;BME280;31382;50.200;8.674;2022-12-18T11:22:31;101788.09;;;-1.60;67.90
45323;BME280;31382;50.200;8.674;2022-12-18T11:27:33;101799.03;;;-1.69;68.09
45323;BME280;31382;50.200;8.674;2022-12-18T11:32:39;101795.16;;;-1.61;67.94
45323;BME280;31382;50.200;8.674;2022-12-18T11:37:46;101785.53;;;-1.62;67.87
45323;BME280;31382;50.200;8.674;2022-12-18T11:42:55;101774.81;;;-1.57;67.71
45323;BME280;31382;50.200;8.674;2022-12-18T11:48:17;101776.03;;;-1.66;68.05
45323;BME280;31382;50.200;8.674;2022-12-18T11:53:20;101776.16;;;-1.69;67.74
45323;BME280;31382;50.200;8.674;2022-12-18T12:15:38;101772.28;;;-1.38;67.37
45323;BME280;31382;50.200;8.674;2022-12-18T12:31:10;101774.81;;;-1.14;66.91
45323;BME280;31382;50.200;8.674;2022-12-18T12:36:26;101770.13;;;-1.08;66.98
45323;BME280;31382;50.200;8.674;2022-12-18T12:41:33;101736.31;;;-1.00;66.73
45323;BME280;31382;50.200;8.674;2022-12-18T12:46:59;101738.75;;;-0.95;66.65
45323;BME280;31382;50.200;8.674;2022-12-18T12:52:10;101738.03;;;-0.78;66.45
45323;BME280;31382;50.200;8.674;2022-12-18T13:02:22;101726.88;;;-0.85;66.28
45323;BME280;31382;50.200;8.674;2022-12-18T13:07:29;101726.09;;;-0.87;66.44
45323;BME280;31382;50.200;8.674;2022-12-18T13:12:33;101730.22;;;-0.81;66.72
45323;BME280;31382;50.200;8.674;2022-12-18T13:18:26;101729.69;;;-0.69;65.94
45323;BME280;31382;50.200;8.674;2022-12-18T13:23:30;101718.84;;;-0.63;66.11
45323;BME280;31382;50.200;8.674;2022-12-18T13:38:39;101714.00;;;-0.53;65.89
45323;BME280;31382;50.200;8.674;2022-12-18T13:43:48;101718.66;;;-0.39;65.81
45323;BME280;31382;50.200;8.674;2022-12-18T13:48:55;101706.28;;;-0.38;66.08
45323;BME280;31382;50.200;8.674;2022-12-18T13:54:02;101692.88;;;-0.34;65.80
45323;BME280;31382;50.200;8.674;2022-12-18T13:59:39;101689.31;;;-0.33;65.69
45323;BME280;31382;50.200;8.674;2022-12-18T14:04:44;101688.28;;;-0.30;65.24
45323;BME280;31382;50.200;8.674;2022-12-18T14:09:50;101680.84;;;-0.22;65.11
45323;BME280;31382;50.200;8.674;2022-12-18T14:15:03;101693.44;;;-0.27;65.91
45323;BME280;31382;50.200;8.674;2022-12-18T14:20:13;101696.94;;;-0.27;65.30
45323;BME280;31382;50.200;8.674;2022-12-18T14:25:21;101688.00;;;-0.24;65.21
45323;BME280;31382;50.200;8.674;2022-12-18T14:35:24;101685.59;;;-0.29;65.47
45323;BME280;31382;50.200;8.674;2022-12-18T14:40:26;101691.59;;;-0.25;65.51
45323;BME280;31382;50.200;8.674;2022-12-18T14:45:40;101688.28;;;-0.30;65.43
45323;BME280;31382;50.200;8.674;2022-12-18T14:51:15;101693.88;;;-0.36;65.09
45323;BME280;31382;50.200;8.674;2022-12-18T14:56:26;101693.88;;;-0.36;65.38
45323;BME280;31382;50.200;8.674;2022-12-18T15:01:35;101680.59;;;-0.35;65.10
45323;BME280;31382;50.200;8.674;2022-12-18T15:06:38;101677.38;;;-0.42;65.03
45323;BME280;31382;50.200;8.674;2022-12-18T15:16:42;101671.75;;;-0.53;64.94
45323;BME280;31382;50.200;8.674;2022-12-18T15:21:46;101678.25;;;-0.60;65.48
45323;BME280;31382;50.200;8.674;2022-12-18T15:26:47;101678.53;;;-0.66;64.92
45323;BME280;31382;50.200;8.674;2022-12-18T15:32:04;101673.59;;;-0.74;65.21
45323;BME280;31382;50.200;8.674;2022-12-18T15:37:07;101657.97;;;-0.78;65.01
45323;BME280;31382;50.200;8.674;2022-12-18T15:42:09;101649.81;;;-1.12;65.59
45323;BME280;31382;50.200;8.674;2022-12-18T15:47:29;101652.66;;;-1.16;65.77
45323;BME280;31382;50.200;8.674;2022-12-18T15:52:43;101651.53;;;-1.31;65.99
45323;BME280;31382;50.200;8.674;2022-12-18T15:57:45;101642.25;;;-1.40;66.20
45323;BME280;31382;50.200;8.674;2022-12-18T16:02:46;101642.44;;;-1.45;66.30
45323;BME280;31382;50.200;8.674;2022-12-18T16:07:48;101651.41;;;-1.69;66.64
45323;BME280;31382;50.200;8.674;2022-12-18T16:12:50;101642.00;;;-1.75;66.74
45323;BME280;31382;50.200;8.674;2022-12-18T16:17:51;101648.25;;;-1.77;66.86
45323;BME280;31382;50.200;8.674;2022-12-18T16:22:53;101634.97;;;-1.76;66.88
45323;BME280;31382;50.200;8.674;2022-12-18T16:27:55;101640.25;;;-1.76;67.00
45323;BME280;31382;50.200;8.674;2022-12-18T16:32:58;101624.91;;;-1.66;66.94
45323;BME280;31382;50.200;8.674;2022-12-18T16:37:59;101618.88;;;-1.48;66.26
45323;BME280;31382;50.200;8.674;2022-12-18T16:43:00;101603.78;;;-1.44;66.51
45323;BME280;31382;50.200;8.674;2022-12-18T16:48:02;101610.44;;;-1.56;66.99
45323;BME280;31382;50.200;8.674;2022-12-18T16:53:04;101603.63;;;-1.41;66.36
45323;BME280;31382;50.200;8.674;2022-12-18T16:58:05;101600.50;;;-1.30;66.33
45323;BME280;31382;50.200;8.674;2022-12-18T17:03:06;101598.72;;;-1.30;66.37
45323;BME280;31382;50.200;8.674;2022-12-18T17:08:08;101592.66;;;-1.32;66.52
45323;BME280;31382;50.200;8.674;2022-12-18T17:13:10;101592.38;;;-1.26;66.68
45323;BME280;31382;50.200;8.674;2022-12-18T17:18:11;101601.44;;;-1.31;66.47
45323;BME280;31382;50.200;8.674;2022-12-18T17:23:13;101602.22;;;-1.29;66.68
45323;BME280;31382;50.200;8.674;2022-12-18T17:28:14;101596.72;;;-1.25;66.67
45323;BME280;31382;50.200;8.674;2022-12-18T17:33:15;101602.44;;;-1.15;66.37
45323;BME280;31382;50.200;8.674;2022-12-18T17:38:17;101593.34;;;-1.08;66.23
45323;BME280;31382;50.200;8.674;2022-12-18T17:43:18;101592.19;;;-1.02;66.57
45323;BME280;31382;50.200;8.674;2022-12-18T17:48:20;101587.84;;;-1.03;66.41
45323;BME280;31382;50.200;8.674;2022-12-18T17:53:22;101593.03;;;-1.02;66.67
45323;BME280;31382;50.200;8.674;2022-12-18T17:58:23;101584.00;;;-0.96;66.45
45323;BME280;31382;50.200;8.674;2022-12-18T18:03:25;101592.75;;;-0.95;66.45
45323;BME280;31382;50.200;8.674;2022-12-18T18:08:27;101587.41;;;-0.94;66.67
45323;BME280;31382;50.200;8.674;2022-12-18T18:13:29;101579.56;;;-0.95;66.63
45323;BME280;31382;50.200;8.674;2022-12-18T18:18:50;101579.50;;;-0.94;66.75
45323;BME280;31382;50.200;8.674;2022-12-18T18:23:51;101579.56;;;-0.95;66.71
45323;BME280;31382;50.200;8.674;2022-12-18T18:28:53;101577.41;;;-0.87;66.77
45323;BME280;31382;50.200;8.674;2022-12-18T18:33:56;101582.63;;;-0.86;66.56
45323;BME280;31382;50.200;8.674;2022-12-18T18:38:58;101567.34;;;-0.79;66.67
45323;BME280;31382;50.200;8.674;2022-12-18T18:44:03;101569.00;;;-0.76;66.46
45323;BME280;31382;50.200;8.674;2022-12-18T18:49:05;101579.34;;;-0.72;66.39
45323;BME280;31382;50.200;8.674;2022-12-18T18:54:07;101558.16;;;-0.70;66.61
45323;BME280;31382;50.200;8.674;2022-12-18T18:59:09;101555.28;;;-0.66;67.24
45323;BME280;31382;50.200;8.674;2022-12-18T19:04:11;101547.28;;;-0.64;66.69
45323;BME280;31382;50.200;8.674;2022-12-18T19:09:12;101531.44;;;-0.64;67.13
45323;BME280;31382;50.200;8.674;2022-12-18T19:14:14;101522.63;;;-0.63;67.13
45323;BME280;31382;50.200;8.674;2022-12-18T19:19:16;101515.25;;;-0.56;67.18
45323;BME280;31382;50.200;8.674;2022-12-18T19:24:21;101523.00;;;-0.53;66.92
45323;BME280;31382;50.200;8.674;2022-12-18T19:29:23;101519.19;;;-0.48;67.07
45323;BME280;31382;50.200;8.674;2022-12-18T19:34:24;101513.53;;;-0.40;66.77
45323;BME280;31382;50.200;8.674;2022-12-18T19:39:26;101532.03;;;-0.40;67.10
45323;BME280;31382;50.200;8.674;2022-12-18T19:44:27;101526.59;;;-0.37;67.32
45323;BME280;31382;50.200;8.674;2022-12-18T19:49:28;101513.63;;;-0.24;67.37
45323;BME280;31382;50.200;8.674;2022-12-18T19:54:32;101493.13;;;-0.19;67.19
45323;BME280;31382;50.200;8.674;2022-12-18T19:59:34;101503.50;;;-0.16;67.53
45323;BME280;31382;50.200;8.674;2022-12-18T20:04:39;101498.66;;;-0.24;67.50
45323;BME280;31382;50.200;8.674;2022-12-18T20:09:40;101498.88;;;-0.11;67.45
45323;BME280;31382;50.200;8.674;2022-12-18T20:14:42;101498.78;;;-0.09;66.89
45323;BME280;31382;50.200;8.674;2022-12-18T20:19:44;101501.44;;;-0.09;67.39
45323;BME280;31382;50.200;8.674;2022-12-18T20:24:45;101504.84;;;-0.07;67.61
45323;BME280;31382;50.200;8.674;2022-12-18T20:29:49;101496.16;;;-0.09;67.25
45323;BME280;31382;50.200;8.674;2022-12-18T20:34:51;101495.69;;;0.00;67.28
45323;BME280;31382;50.200;8.674;2022-12-18T20:39:53;101498.00;;;0.06;67.33
45323;BME280;31382;50.200;8.674;2022-12-18T20:44:55;101505.31;;;0.01;66.95
45323;BME280;31382;50.200;8.674;2022-12-18T20:49:57;101492.53;;;0.09;66.91
45323;BME280;31382;50.200;8.674;2022-12-18T20:54:58;101485.31;;;0.13;66.81
45323;BME280;31382;50.200;8.674;2022-12-18T21:00:01;101483.44;;;0.15;66.66
45323;BME280;31382;50.200;8.674;2022-12-18T21:05:03;101477.22;;;0.16;67.11
45323;BME280;31382;50.200;8.674;2022-12-18T21:10:05;101484.38;;;0.14;66.67
45323;BME280;31382;50.200;8.674;2022-12-18T21:15:08;101493.88;;;0.18;67.46
45323;BME280;31382;50.200;8.674;2022-12-18T21:20:09;101488.94;;;0.28;66.56
45323;BME280;31382;50.200;8.674;2022-12-18T21:25:17;101488.84;;;0.29;66.75
45323;BME280;31382;50.200;8.674;2022-12-18T21:30:18;101496.28;;;0.38;66.64
45323;BME280;31382;50.200;8.674;2022-12-18T21:35:20;101489.06;;;0.42;66.85
45323;BME280;31382;50.200;8.674;2022-12-18T21:40:23;101494.34;;;0.42;66.46
45323;BME280;31382;50.200;8.674;2022-12-18T21:45:25;101502.66;;;0.52;66.75
45323;BME280;31382;50.200;8.674;2022-12-18T21:50:26;101501.19;;;0.62;66.73
45323;BME280;31382;50.200;8.674;2022-12-18T21:55:27;101493.97;;;0.66;66.35
45323;BME280;31382;50.200;8.674;2022-12-18T22:00:29;101500.94;;;0.67;66.05
45323;BME280;31382;50.200;8.674;2022-12-18T22:05:30;101480.53;;;0.69;66.02
45323;BME280;31382;50.200;8.674;2022-12-18T22:10:32;101476.53;;;0.62;66.93
45323;BME280;31382;50.200;8.674;2022-12-18T22:15:33;101480.03;;;0.62;67.24
45323;BME280;31382;50.200;8.674;2022-12-18T22:20:35;101470.66;;;0.72;66.84
45323;BME280;31382;50.200;8.674;2022-12-18T22:25:36;101468.00;;;0.72;66.80
45323;BME280;31382;50.200;8.674;2022-12-18T22:30:40;101484.50;;;0.77;66.25
45323;BME280;31382;50.200;8.674;2022-12-18T22:35:41;101482.00;;;0.74;66.60
45323;BME280;31382;50.200;8.674;2022-12-18T22:40:43;101477.25;;;0.81;66.25
45323;BME280;31382;50.200;8.674;2022-12-18T22:45:45;101468.34;;;0.82;66.47
45323;BME280;31382;50.200;8.674;2022-12-18T22:50:47;101458.53;;;0.84;66.10
45323;BME280;31382;50.200;8.674;2022-12-18T22:55:51;101452.31;;;0.85;66.43
45323;BME280;31382;50.200;8.674;2022-12-18T23:00:53;101458.53;;;0.84;65.91
45323;BME280;31382;50.200;8.674;2022-12-18T23:06:01;101452.13;;;0.72;66.07
45323;BME280;31382;50.200;8.674;2022-12-18T23:11:03;101442.72;;;0.83;66.72
45323;BME280;31382;50.200;8.674;2022-12-18T23:16:07;101442.72;;;0.83;66.15
45323;BME280;31382;50.200;8.674;2022-12-18T23:21:11;101451.34;;;0.86;65.79
45323;BME280;31382;50.200;8.674;2022-12-18T23:26:20;101444.78;;;0.93;65.61
45323;BME280;31382;50.200;8.674;2022-12-18T23:31:23;101425.41;;;0.93;66.39
45323;BME280;31382;50.200;8.674;2022-12-18T23:36:25;101428.28;;;0.88;66.38
45323;BME280;31382;50.200;8.674;2022-12-18T23:41:29;101438.53;;;0.94;66.08
45323;BME280;31382;50.200;8.674;2022-12-18T23:46:33;101418.41;;;0.92;66.38
45323;BME280;31382;50.200;8.674;2022-12-18T23:51:36;101425.31;;;0.94;66.49
45323;BME280;31382;50.200;8.674;2022-12-18T23:56:39;101418.03;;;0.98;66.24
